Hovedside
METAR-TAF:

METAR-TAF

Lufthavner :

Córdoba, Argentina

breddegrad: 31-19S, lengdegrad: 064-13W, høyde over havet: 484 m

Gjeldene værobservasjon

Denne rapporten ble laget for 46 minutter siden, klokken 20:00 UTC
Vind 8 kt fra Øst, skiftende mellom Nord-nordøst og Øst-sørøst
Temperatur 19°C
Luftfuktighet 15%
Trykk 1010 hPa
Sikt: 9000 m

METAR: SACO 132000Z 08008KT 030V120 9000 NSC 19/M08 Q1010 NOSIG

Tid: 17:46 (20:46 UTC)

Varsel

Denne rapporten ble laget for 3 timer og 46 minutter siden, klokken 17:00 UTC
Varsel gyldig fra 13. klokken 18 UTC til 14. klokken 18 UTC
Vind 5 kt fra Sør-sørøst
Sikt 10 km eller mer
ingen skyer under 1500 m og ingen bygeskyer
Blir
fra 13. klokken 23 UTC til 14. klokken 02 UTC
Vind 10 kt fra Nord
Blir
fra 14. klokken 15 UTC til 14. klokken 18 UTC
Vind 15 kt fra Sør med vindkast opp mot 25 kt
Sikt: 5000 m
støvdrev

TAF: SACO 131700Z 1318/1418 16005KT CAVOK TX22/1418Z TN02/1410Z BECMG 1323/1402 36010KT BECMG 1415/1418 18015G25KT 5000 BLDU NSC

Værobservasjoner og værvarsel for over 4000 flyplasser (METAR- og TAF-rapporter).

Tilgjengelige stasjoner er representert av de røde og gule prikkene på kartet.

Hold musepekeren over prikken for å se navnet på stasjonen.

Klikk så for å se værobservasjoner og -varsler.

For å forandre kartet kan du klikke på den grønne knappen med svart kryss for å zoome inn, på den grønne knappen med strek for å zoome ut, eller på de grønne pilene for å se tilstøtende kart.


METAR-TAF: